Time,TemperatureF,DewpointF,PressureIn,WindDirection,WindDirectionDegrees,WindSpeedMPH,WindSpeedGustMPH,Humidity,HourlyPrecipIn,Conditions,Clouds,dailyrainin,SolarRadiationWatts/m^2,SoftwareType,DateUTC
2013-03-15 12:36:00,72.0,49.0,30.24,East,87,0.0,0.0,45,-99.99,,,0.00,0,weatherlink.com 1.10,2013-03-15 19:36:00,
2013-03-15 12:56:00,72.2,49.0,30.23,East,87,0.0,0.0,45,-99.99,,,0.00,0,weatherlink.com 1.10,2013-03-15 19:56:00,
2013-03-15 13:17:00,73.2,50.0,30.22,East,88,0.0,0.0,45,-99.99,,,0.00,0,weatherlink.com 1.10,2013-03-15 20:17:00,
2013-03-15 13:36:00,73.3,49.0,30.22,North,5,8.0,8.0,44,-99.99,,,0.00,0,weatherlink.com 1.10,2013-03-15 20:36:00,
2013-03-15 13:56:00,73.2,49.0,30.21,North,-999,-999.0,-999.0,44,-99.99,,,0.00,0,weatherlink.com 1.10,2013-03-15 20:56:00,
2013-03-15 14:16:00,73.1,49.0,30.20,North,-999,-999.0,-999.0,44,-99.99,,,0.00,0,weatherlink.com 1.10,2013-03-15 21:16:00,
2013-03-15 14:36:00,73.1,49.0,30.21,North,-999,-999.0,-999.0,43,-99.99,,,0.00,0,weatherlink.com 1.10,2013-03-15 21:36:00,
2013-03-15 14:56:00,73.0,48.0,30.21,NNW,339,16.0,16.0,43,-99.99,,,0.00,0,weatherlink.com 1.10,2013-03-15 21:56:00,
2013-03-15 15:22:00,-999.0,-99.9,30.21,NNW,339,16.0,16.0,-999,0.00,,,0.00,,weatherlink.com 1.10,2013-03-15 22:22:00,
2013-03-15 15:42:00,73.1,50.0,30.20,NNW,339,16.0,16.0,45,0.00,,,0.00,0,weatherlink.com 1.10,2013-03-15 22:42:00,
2013-03-15 16:01:00,72.9,51.0,30.20,NNW,339,16.0,16.0,47,0.00,,,0.00,0,weatherlink.com 1.10,2013-03-15 23:01:00,
2013-03-15 16:21:00,72.6,50.0,30.20,NNW,339,16.0,16.0,46,0.00,,,0.00,0,weatherlink.com 1.10,2013-03-15 23:21:00,
2013-03-15 16:41:00,72.4,50.0,30.20,East,100,0.0,0.0,46,0.00,,,0.00,0,weatherlink.com 1.10,2013-03-15 23:41:00,
2013-03-15 17:01:00,72.4,50.0,30.20,East,100,0.0,0.0,46,0.00,,,0.00,0,weatherlink.com 1.10,2013-03-16 00:01:00,
2013-03-15 17:16:00,72.4,50.0,30.20,East,100,0.0,0.0,47,0.00,,,0.00,0,weatherlink.com 1.10,2013-03-16 00:16:00,
2013-03-15 17:41:00,72.5,50.0,30.20,East,100,0.0,0.0,47,0.00,,,0.00,0,weatherlink.com 1.10,2013-03-16 00:41:00,
2013-03-15 18:01:00,72.4,50.0,30.20,East,100,0.0,0.0,47,0.00,,,0.00,0,weatherlink.com 1.10,2013-03-16 01:01:00,
2013-03-15 18:21:00,72.4,50.0,30.19,East,100,0.0,0.0,47,0.00,,,0.00,0,weatherlink.com 1.10,2013-03-16 01:21:00,
2013-03-15 18:41:00,72.3,50.0,30.18,East,100,0.0,0.0,47,0.00,,,0.00,0,weatherlink.com 1.10,2013-03-16 01:41:00,
2013-03-15 19:01:00,72.2,50.0,30.18,East,100,0.0,0.0,47,0.00,,,0.00,0,weatherlink.com 1.10,2013-03-16 02:01:00,
2013-03-15 19:21:00,72.2,50.0,30.18,East,100,0.0,0.0,47,0.00,,,0.00,0,weatherlink.com 1.10,2013-03-16 02:21:00,
2013-03-15 19:41:00,72.2,50.0,30.19,North,-999,-999.0,-999.0,47,0.00,,,0.00,0,weatherlink.com 1.10,2013-03-16 02:41:00,
2013-03-15 20:02:00,72.2,50.0,30.18,NNW,339,16.0,16.0,46,0.00,,,0.00,0,weatherlink.com 1.10,2013-03-16 03:02:00,
2013-03-15 20:21:00,72.2,50.0,30.18,NNW,339,16.0,16.0,46,0.00,,,0.00,0,weatherlink.com 1.10,2013-03-16 03:21:00,
2013-03-15 20:41:00,72.2,50.0,30.18,NNW,339,16.0,16.0,47,0.00,,,0.00,0,weatherlink.com 1.10,2013-03-16 03:41:00,
2013-03-15 21:01:00,72.1,49.0,30.18,NNW,339,16.0,16.0,46,0.00,,,0.00,0,weatherlink.com 1.10,2013-03-16 04:01:00,
2013-03-15 21:21:00,72.1,49.0,30.18,NNW,339,16.0,16.0,46,0.00,,,0.00,0,weatherlink.com 1.10,2013-03-16 04:21:00,
2013-03-15 21:36:00,72.0,49.0,30.19,NNW,339,16.0,16.0,46,0.00,,,0.00,0,weatherlink.com 1.10,2013-03-16 04:36:00,
2013-03-15 21:56:00,72.0,49.0,30.21,NNW,339,16.0,16.0,46,0.00,,,0.00,0,weatherlink.com 1.10,2013-03-16 04:56:00,
2013-03-15 22:21:00,71.9,49.0,30.22,NNW,339,16.0,16.0,46,0.00,,,0.00,0,weatherlink.com 1.10,2013-03-16 05:21:00,
2013-03-15 22:41:00,71.8,49.0,30.21,NNW,339,16.0,16.0,46,0.00,,,0.00,0,weatherlink.com 1.10,2013-03-16 05:41:00,
2013-03-15 23:02:00,71.8,49.0,30.21,NNW,339,16.0,16.0,46,0.00,,,0.00,0,weatherlink.com 1.10,2013-03-16 06:02:00,
2013-03-15 23:21:00,71.7,49.0,30.21,NNW,339,16.0,16.0,46,0.00,,,0.00,0,weatherlink.com 1.10,2013-03-16 06:21:00,
2013-03-15 23:41:00,71.6,49.0,30.21,NNW,339,16.0,16.0,46,0.00,,,0.00,0,weatherlink.com 1.10,2013-03-16 06:41:00,